createdAt,value
2022-08-28T00:01:23.683Z,67.43
2022-08-28T00:03:50.210Z,67.74
2022-08-28T00:06:17.036Z,67.65
2022-08-28T00:08:43.575Z,67.65
2022-08-28T00:11:10.245Z,67.40
2022-08-28T00:13:36.752Z,67.39
2022-08-28T00:16:04.357Z,67.20
2022-08-28T00:18:31.642Z,67.75
2022-08-28T00:20:58.927Z,67.55
2022-08-28T00:23:26.401Z,67.59
2022-08-28T00:26:08.935Z,67.47
2022-08-28T00:28:35.523Z,67.41
2022-08-28T00:31:02.158Z,67.62
2022-08-28T00:33:34.776Z,67.75
2022-08-28T00:36:02.857Z,67.57
2022-08-28T00:38:30.579Z,67.42
2022-08-28T00:41:03.671Z,67.75
2022-08-28T00:43:48.226Z,67.90
2022-08-28T00:46:21.086Z,67.63
2022-08-28T00:48:48.267Z,67.22
2022-08-28T00:51:17.426Z,67.55
2022-08-28T00:53:44.757Z,67.53
2022-08-28T00:56:13.959Z,67.47
2022-08-28T00:58:43.479Z,67.15
2022-08-28T01:01:10.176Z,67.03
2022-08-28T01:03:37.392Z,67.34
2022-08-28T01:06:04.849Z,67.24
2022-08-28T01:08:32.400Z,67.66
2022-08-28T01:11:02.947Z,67.68
2022-08-28T01:13:30.619Z,67.43
2022-08-28T01:15:57.648Z,67.44
2022-08-28T01:18:26.607Z,66.97
2022-08-28T01:21:28.566Z,67.27
2022-08-28T01:24:24.869Z,66.86
2022-08-28T01:26:51.438Z,66.97
2022-08-28T01:29:18.310Z,66.64
2022-08-28T01:31:44.880Z,66.83
2022-08-28T01:34:12.776Z,66.89
2022-08-28T01:36:39.894Z,66.99
2022-08-28T01:39:13.106Z,67.30
2022-08-28T01:41:42.491Z,66.98
2022-08-28T01:44:09.208Z,66.96
2022-08-28T01:46:36.153Z,66.97
2022-08-28T01:49:04.011Z,67.03
2022-08-28T01:51:35.018Z,66.86
2022-08-28T01:54:05.093Z,67.24
2022-08-28T01:56:32.068Z,67.36
2022-08-28T01:59:00.319Z,67.32
2022-08-28T02:01:26.961Z,67.23
2022-08-28T02:03:53.732Z,67.51
2022-08-28T02:06:20.592Z,67.42
2022-08-28T02:08:47.251Z,67.51
2022-08-28T02:11:14.012Z,67.71
2022-08-28T02:13:40.660Z,67.58
2022-08-28T02:16:09.727Z,67.55
2022-08-28T02:18:37.476Z,67.64
2022-08-28T02:21:06.495Z,67.70
2022-08-28T02:23:33.169Z,67.41
2022-08-28T02:26:00.005Z,67.46
2022-08-28T02:28:26.548Z,67.37
2022-08-28T02:30:53.161Z,67.70
2022-08-28T02:33:19.769Z,67.54
2022-08-28T02:35:46.420Z,67.40
2022-08-28T02:38:13.135Z,67.76
2022-08-28T02:40:40.249Z,67.79
2022-08-28T02:43:07.212Z,67.72
2022-08-28T02:45:33.830Z,67.71
2022-08-28T02:48:00.709Z,67.47
2022-08-28T02:50:28.505Z,67.52
2022-08-28T02:52:55.135Z,67.38
2022-08-28T02:55:22.384Z,67.62
2022-08-28T02:57:49.334Z,67.33
2022-08-28T03:00:20.887Z,67.66
2022-08-28T03:02:48.050Z,67.67
2022-08-28T03:05:17.973Z,67.59
2022-08-28T03:07:45.221Z,67.47
2022-08-28T03:10:11.838Z,67.50
2022-08-28T03:12:39.028Z,67.37
2022-08-28T03:15:07.415Z,67.72
2022-08-28T03:17:35.693Z,67.66
2022-08-28T03:20:05.160Z,67.77
2022-08-28T03:22:31.837Z,67.45
2022-08-28T03:24:58.482Z,67.18
2022-08-28T03:27:25.047Z,67.21
2022-08-28T03:29:51.599Z,67.45
2022-08-28T03:32:18.193Z,67.22
2022-08-28T03:34:44.755Z,67.07
2022-08-28T03:37:11.358Z,67.24
2022-08-28T03:39:37.898Z,67.12
2022-08-28T03:42:04.702Z,67.29
2022-08-28T03:44:31.239Z,67.17
2022-08-28T03:46:58.181Z,67.48
2022-08-28T03:49:24.696Z,67.41
2022-08-28T03:51:51.209Z,67.41
2022-08-28T03:54:17.845Z,67.52
2022-08-28T03:56:44.420Z,67.44
2022-08-28T03:59:10.977Z,67.56
2022-08-28T04:01:37.704Z,67.51
2022-08-28T04:04:04.863Z,67.48
2022-08-28T04:06:31.440Z,67.30
2022-08-28T04:09:00.170Z,67.64
2022-08-28T04:11:27.200Z,67.61
2022-08-28T04:13:53.782Z,67.52
2022-08-28T04:16:20.555Z,67.61
2022-08-28T04:18:49.193Z,67.66
2022-08-28T04:21:17.468Z,67.97
2022-08-28T04:23:45.184Z,67.85
2022-08-28T04:26:14.693Z,67.73
2022-08-28T04:28:42.283Z,67.67
2022-08-28T04:31:09.808Z,68.06
2022-08-28T04:33:37.516Z,67.58
2022-08-28T04:36:06.446Z,67.72
2022-08-28T04:38:33.860Z,67.71
2022-08-28T04:41:04.666Z,68.05
2022-08-28T04:43:31.578Z,68.07
2022-08-28T04:45:58.758Z,68.01
2022-08-28T04:48:25.987Z,67.98
2022-08-28T04:50:52.523Z,68.19
2022-08-28T04:53:20.660Z,67.70
2022-08-28T04:55:54.965Z,68.18
2022-08-28T04:58:24.250Z,68.32
2022-08-28T05:00:52.661Z,68.03
2022-08-28T05:03:19.314Z,68.42
2022-08-28T05:05:48.593Z,68.08
2022-08-28T05:08:17.401Z,68.27
2022-08-28T05:10:44.556Z,68.35
2022-08-28T05:13:12.142Z,68.11
2022-08-28T05:15:43.906Z,68.05
2022-08-28T05:18:12.243Z,68.06
2022-08-28T05:20:41.261Z,67.94
2022-08-28T05:23:07.995Z,67.83
2022-08-28T05:25:40.383Z,67.74
2022-08-28T05:28:11.454Z,67.96
2022-08-28T05:30:40.971Z,67.62
2022-08-28T05:33:08.561Z,68.04
2022-08-28T05:35:37.049Z,67.88
2022-08-28T05:38:04.304Z,67.94
2022-08-28T05:40:31.270Z,67.72
2022-08-28T05:42:57.924Z,67.72
2022-08-28T05:45:24.465Z,67.61
2022-08-28T05:47:51.248Z,67.66
2022-08-28T05:50:17.978Z,67.64
2022-08-28T05:52:44.588Z,67.53
2022-08-28T05:55:12.992Z,67.72
2022-08-28T05:57:40.142Z,67.60
2022-08-28T06:00:07.971Z,67.69
2022-08-28T06:02:34.563Z,67.73
2022-08-28T06:05:01.767Z,67.88
2022-08-28T06:07:28.441Z,68.21
2022-08-28T06:09:55.031Z,67.96
2022-08-28T06:12:21.571Z,68.08
2022-08-28T06:14:48.171Z,68.32
2022-08-28T06:17:14.772Z,68.42
2022-08-28T06:19:41.843Z,68.55
2022-08-28T06:22:08.724Z,68.52
2022-08-28T06:24:35.863Z,68.53
2022-08-28T06:27:02.414Z,68.43
2022-08-28T06:29:29.700Z,68.37
2022-08-28T06:32:02.241Z,68.36
2022-08-28T06:34:28.992Z,68.31
2022-08-28T06:36:55.607Z,68.41
2022-08-28T06:39:22.722Z,68.29
2022-08-28T06:41:49.455Z,68.17
2022-08-28T06:44:18.087Z,68.40
2022-08-28T06:46:44.664Z,68.56
2022-08-28T06:49:11.336Z,68.72
2022-08-28T06:51:39.164Z,68.64
2022-08-28T06:54:06.264Z,68.98
2022-08-28T06:56:33.927Z,68.66
2022-08-28T06:59:00.751Z,68.57
2022-08-28T07:01:33.736Z,68.35
2022-08-28T07:04:04.069Z,69.00
2022-08-28T07:06:36.775Z,68.94
2022-08-28T07:09:06.464Z,68.78
2022-08-28T07:11:34.794Z,68.82
2022-08-28T07:14:02.032Z,68.78
2022-08-28T07:16:35.085Z,68.27
2022-08-28T07:19:01.657Z,68.42
2022-08-28T07:21:28.253Z,67.95
2022-08-28T07:23:55.006Z,68.03
2022-08-28T07:26:23.988Z,67.60
2022-08-28T07:28:51.732Z,67.87
2022-08-28T07:31:27.649Z,67.32
2022-08-28T07:33:55.570Z,67.90
2022-08-28T07:36:29.848Z,67.58
2022-08-28T07:38:58.841Z,67.21
2022-08-28T07:41:29.689Z,66.87
2022-08-28T07:43:57.088Z,66.90
2022-08-28T07:46:23.662Z,67.10
2022-08-28T07:48:50.293Z,66.68
2022-08-28T07:51:16.936Z,65.70
2022-08-28T07:53:43.547Z,65.87
2022-08-28T07:56:10.060Z,65.94
2022-08-28T07:58:36.703Z,66.30
2022-08-28T08:01:03.825Z,66.00
2022-08-28T08:03:31.641Z,65.87
2022-08-28T08:06:00.271Z,66.04
2022-08-28T08:08:26.875Z,65.97
2022-08-28T08:11:11.282Z,66.55
2022-08-28T08:13:45.358Z,67.08
2022-08-28T08:16:15.637Z,67.35
2022-08-28T08:18:42.324Z,68.11
2022-08-28T08:21:11.983Z,68.22
2022-08-28T08:23:39.113Z,68.41
2022-08-28T08:26:07.736Z,68.34
2022-08-28T08:28:36.138Z,66.78
2022-08-28T08:31:24.529Z,66.34
2022-08-28T08:33:54.887Z,66.67
2022-08-28T08:36:23.939Z,66.75
2022-08-28T08:38:59.630Z,66.47
2022-08-28T08:41:46.286Z,66.40
2022-08-28T08:44:21.702Z,66.30
2022-08-28T08:47:16.536Z,66.33
2022-08-28T08:49:56.819Z,65.96
2022-08-28T08:52:34.877Z,65.94
2022-08-28T08:55:16.570Z,65.25
2022-08-28T08:57:49.223Z,65.19
2022-08-28T09:00:17.133Z,65.52
2022-08-28T09:02:53.220Z,65.49
2022-08-28T09:05:26.325Z,65.63
2022-08-28T09:07:57.656Z,66.19
2022-08-28T09:10:33.679Z,66.56
2022-08-28T09:13:18.744Z,66.16
2022-08-28T09:15:48.769Z,67.23
2022-08-28T09:18:24.631Z,65.97
2022-08-28T09:20:56.831Z,66.79
2022-08-28T09:23:24.981Z,66.85
2022-08-28T09:25:54.383Z,66.00
2022-08-28T09:28:29.519Z,65.83
2022-08-28T09:31:07.341Z,66.42
2022-08-28T09:33:43.503Z,66.30
2022-08-28T09:36:28.407Z,65.22
2022-08-28T09:39:20.831Z,65.67
2022-08-28T09:42:01.207Z,65.90
2022-08-28T09:44:27.860Z,66.57
2022-08-28T09:46:54.697Z,66.38
2022-08-28T09:49:30.310Z,64.83
2022-08-28T09:51:58.567Z,65.88
2022-08-28T09:54:34.458Z,64.53
2022-08-28T09:57:01.595Z,66.00
2022-08-28T09:59:29.472Z,65.77
2022-08-28T10:02:20.195Z,64.91
2022-08-28T10:05:07.905Z,64.71
2022-08-28T10:07:59.917Z,64.26
2022-08-28T10:10:49.736Z,64.55
2022-08-28T10:13:34.370Z,65.17
2022-08-28T10:16:10.070Z,64.77
2022-08-28T10:18:58.165Z,65.19
2022-08-28T10:21:29.406Z,65.47
2022-08-28T10:24:03.515Z,65.49
2022-08-28T10:26:55.493Z,64.83
2022-08-28T10:29:27.727Z,64.85
2022-08-28T10:32:38.790Z,65.18
2022-08-28T10:35:24.396Z,65.31
2022-08-28T10:38:40.140Z,65.93
2022-08-28T10:41:16.991Z,66.05
2022-08-28T10:43:49.280Z,66.11
2022-08-28T10:46:28.306Z,66.60
2022-08-28T10:49:01.476Z,66.61
2022-08-28T10:51:52.625Z,67.18
2022-08-28T10:54:30.078Z,67.54
2022-08-28T10:57:04.984Z,67.81
2022-08-28T10:59:34.677Z,67.56
2022-08-28T11:02:13.088Z,67.97
2022-08-28T11:04:40.031Z,67.77
2022-08-28T11:07:11.340Z,67.84
2022-08-28T11:09:45.532Z,68.09
2022-08-28T11:12:18.178Z,68.25
2022-08-28T11:14:48.487Z,68.92
2022-08-28T11:17:24.137Z,68.67
2022-08-28T11:19:53.492Z,68.38
2022-08-28T11:22:24.730Z,68.59
2022-08-28T11:25:18.086Z,68.99
2022-08-28T11:28:19.604Z,68.78
2022-08-28T11:31:07.909Z,68.47
2022-08-28T11:33:41.909Z,68.79
2022-08-28T11:36:18.448Z,69.27
2022-08-28T11:38:44.956Z,68.93
2022-08-28T11:41:31.895Z,68.61
2022-08-28T11:44:04.193Z,69.21
2022-08-28T11:46:33.399Z,69.12
2022-08-28T11:49:05.296Z,69.43
2022-08-28T11:51:46.951Z,69.63
2022-08-28T11:54:35.266Z,69.00
2022-08-28T11:57:14.649Z,69.52
2022-08-28T12:00:01.523Z,69.47
2022-08-28T12:02:33.637Z,69.36
2022-08-28T12:05:00.299Z,69.43
2022-08-28T12:07:35.203Z,69.58
2022-08-28T12:10:05.146Z,69.53
2022-08-28T12:12:47.282Z,69.15
2022-08-28T12:15:34.154Z,69.24
2022-08-28T12:18:24.896Z,69.77
2022-08-28T12:20:51.420Z,69.76
2022-08-28T12:23:24.120Z,69.82
2022-08-28T12:26:00.706Z,69.26
2022-08-28T12:28:32.811Z,69.91
2022-08-28T12:31:24.692Z,69.71
2022-08-28T12:34:01.915Z,69.65
2022-08-28T12:36:28.536Z,69.69
2022-08-28T12:38:57.221Z,69.71
2022-08-28T12:41:24.784Z,69.85
2022-08-28T12:43:56.845Z,69.12
2022-08-28T12:46:36.906Z,68.64
2022-08-28T12:49:25.416Z,69.19
2022-08-28T12:52:08.973Z,69.12
2022-08-28T12:54:35.689Z,69.86
2022-08-28T12:57:07.979Z,69.20
2022-08-28T12:59:45.119Z,69.18
2022-08-28T13:02:30.441Z,69.44
2022-08-28T13:05:04.132Z,68.87
2022-08-28T13:07:36.096Z,68.82
2022-08-28T13:10:19.806Z,68.76
2022-08-28T13:12:56.106Z,68.66
2022-08-28T13:15:45.290Z,68.01
2022-08-28T13:18:40.588Z,68.53
2022-08-28T13:21:13.205Z,68.76
2022-08-28T13:23:40.511Z,69.64
2022-08-28T13:26:07.645Z,69.72
2022-08-28T13:28:38.963Z,68.97
2022-08-28T13:31:06.024Z,69.46
2022-08-28T13:33:32.697Z,69.49
2022-08-28T13:36:20.025Z,67.85
2022-08-28T13:38:47.058Z,69.24
2022-08-28T13:41:13.672Z,69.20
2022-08-28T13:43:46.076Z,68.51
2022-08-28T13:46:12.906Z,68.89
2022-08-28T13:48:39.584Z,69.17
2022-08-28T13:51:12.026Z,68.07
2022-08-28T13:53:45.804Z,68.91
2022-08-28T13:56:12.375Z,68.65
2022-08-28T13:58:38.959Z,68.96
2022-08-28T14:01:05.778Z,68.47
2022-08-28T14:03:33.047Z,68.11
2022-08-28T14:05:59.813Z,67.97
2022-08-28T14:08:26.457Z,67.60
2022-08-28T14:10:53.004Z,67.52
2022-08-28T14:13:19.682Z,67.38
2022-08-28T14:15:46.275Z,66.75
2022-08-28T14:18:12.922Z,66.53
2022-08-28T14:20:39.818Z,66.61
2022-08-28T14:23:06.514Z,66.65
2022-08-28T14:25:38.497Z,66.60
2022-08-28T14:28:06.034Z,66.61
2022-08-28T14:30:32.589Z,66.62
2022-08-28T14:32:59.348Z,66.67
2022-08-28T14:35:25.926Z,66.70
2022-08-28T14:37:52.507Z,66.51
2022-08-28T14:40:19.157Z,66.61
2022-08-28T14:42:45.773Z,66.17
2022-08-28T14:45:12.325Z,66.17
2022-08-28T14:47:38.857Z,65.66
2022-08-28T14:50:06.572Z,65.30
2022-08-28T14:52:33.155Z,64.88
2022-08-28T14:54:59.696Z,64.61
2022-08-28T14:57:26.306Z,64.21
2022-08-28T14:59:52.902Z,63.69
2022-08-28T15:02:19.785Z,63.23
2022-08-28T15:04:46.439Z,62.57
2022-08-28T15:07:13.127Z,62.84
2022-08-28T15:09:41.932Z,62.69
2022-08-28T15:12:09.925Z,62.58
2022-08-28T15:14:36.911Z,62.45
2022-08-28T15:17:04.322Z,62.57
2022-08-28T15:19:31.335Z,62.90
2022-08-28T15:21:58.188Z,63.60
2022-08-28T15:24:30.059Z,61.96
2022-08-28T15:26:57.326Z,63.16
2022-08-28T15:29:23.884Z,63.15
2022-08-28T15:31:53.448Z,62.79
2022-08-28T15:34:25.962Z,61.81
2022-08-28T15:36:55.619Z,62.65
2022-08-28T15:39:27.812Z,62.75
2022-08-28T15:41:55.203Z,63.10
2022-08-28T15:44:22.006Z,62.52
2022-08-28T15:46:56.981Z,62.14
2022-08-28T15:49:25.584Z,61.88
2022-08-28T15:51:52.600Z,62.25
2022-08-28T15:54:20.867Z,62.76
2022-08-28T15:56:50.767Z,63.75
2022-08-28T15:59:20.602Z,64.71
2022-08-28T16:01:47.400Z,65.18
2022-08-28T16:04:14.701Z,66.52
2022-08-28T16:06:41.688Z,66.78
2022-08-28T16:09:10.388Z,66.78
2022-08-28T16:11:38.661Z,66.93
2022-08-28T16:14:05.375Z,66.68
2022-08-28T16:16:32.409Z,67.26
2022-08-28T16:18:59.120Z,67.50
2022-08-28T16:21:26.855Z,67.20
2022-08-28T16:23:54.882Z,67.17
2022-08-28T16:26:21.971Z,66.49
2022-08-28T16:28:48.538Z,66.04
2022-08-28T16:31:20.372Z,65.44
2022-08-28T16:33:49.761Z,65.07
2022-08-28T16:36:17.283Z,65.60
2022-08-28T16:38:46.669Z,65.37
2022-08-28T16:41:16.945Z,65.50
2022-08-28T16:43:43.587Z,65.95
2022-08-28T16:46:16.787Z,62.82
2022-08-28T16:48:44.754Z,64.88
2022-08-28T16:51:12.325Z,64.02
2022-08-28T16:53:39.611Z,63.26
2022-08-28T16:56:08.299Z,63.13
2022-08-28T16:58:35.319Z,62.43
2022-08-28T17:01:02.078Z,62.04
2022-08-28T17:03:28.837Z,60.31
2022-08-28T17:05:56.466Z,59.84
2022-08-28T17:08:23.204Z,59.57
2022-08-28T17:10:49.798Z,59.11
2022-08-28T17:13:16.440Z,59.28
2022-08-28T17:15:43.287Z,59.46
2022-08-28T17:18:09.901Z,59.08
2022-08-28T17:20:36.521Z,58.49
2022-08-28T17:23:03.439Z,58.67
2022-08-28T17:25:29.989Z,58.83
2022-08-28T17:27:56.540Z,59.01
2022-08-28T17:30:23.236Z,59.39
2022-08-28T17:32:50.308Z,59.10
2022-08-28T17:35:17.393Z,58.93
2022-08-28T17:37:44.594Z,58.74
2022-08-28T17:40:15.695Z,59.02
2022-08-28T17:42:43.822Z,59.13
2022-08-28T17:45:10.726Z,59.66
2022-08-28T17:47:37.473Z,60.03
2022-08-28T17:50:04.297Z,60.15
2022-08-28T17:52:31.657Z,60.43
2022-08-28T17:54:58.283Z,60.80
2022-08-28T17:57:24.908Z,61.35
2022-08-28T17:59:51.591Z,61.71
2022-08-28T18:02:18.314Z,62.26
2022-08-28T18:04:44.908Z,62.81
2022-08-28T18:07:11.687Z,62.83
2022-08-28T18:09:38.401Z,63.49
2022-08-28T18:12:05.117Z,64.07
2022-08-28T18:14:31.840Z,64.09
2022-08-28T18:16:58.492Z,64.44
2022-08-28T18:19:25.175Z,64.62
2022-08-28T18:21:51.800Z,65.20
2022-08-28T18:24:18.592Z,65.01
2022-08-28T18:26:45.268Z,65.19
2022-08-28T18:29:12.111Z,65.47
2022-08-28T18:31:39.398Z,65.43
2022-08-28T18:34:06.280Z,65.70
2022-08-28T18:36:32.969Z,65.64
2022-08-28T18:38:59.743Z,65.90
2022-08-28T18:41:30.654Z,65.74
2022-08-28T18:44:10.341Z,65.61
2022-08-28T18:46:36.943Z,65.98
2022-08-28T18:49:03.951Z,66.10
2022-08-28T18:51:30.576Z,65.78
2022-08-28T18:53:57.187Z,66.13
2022-08-28T18:56:24.265Z,65.83
2022-08-28T18:58:55.126Z,66.02
2022-08-28T19:01:22.209Z,66.21
2022-08-28T19:03:48.905Z,66.06
2022-08-28T19:06:15.908Z,66.14
2022-08-28T19:08:42.731Z,66.18
2022-08-28T19:11:11.664Z,66.29
2022-08-28T19:13:41.126Z,66.36
2022-08-28T19:16:08.694Z,66.43
2022-08-28T19:18:35.388Z,66.51
2022-08-28T19:21:04.518Z,66.38
2022-08-28T19:23:32.468Z,66.32
2022-08-28T19:25:59.013Z,66.27
2022-08-28T19:28:25.700Z,66.23
2022-08-28T19:30:52.811Z,66.57
2022-08-28T19:33:19.841Z,66.48
2022-08-28T19:35:46.715Z,66.84
2022-08-28T19:38:13.470Z,66.53
2022-08-28T19:40:40.139Z,66.83
2022-08-28T19:43:06.854Z,66.83
2022-08-28T19:45:37.347Z,66.90
2022-08-28T19:48:03.982Z,67.08
2022-08-28T19:50:30.637Z,67.17
2022-08-28T19:52:57.490Z,67.23
2022-08-28T19:55:27.461Z,67.26
2022-08-28T19:57:54.861Z,67.47
2022-08-28T20:00:24.878Z,67.52
2022-08-28T20:02:51.891Z,67.66
2022-08-28T20:05:20.064Z,68.01
2022-08-28T20:07:47.045Z,67.90
2022-08-28T20:10:14.865Z,68.11
2022-08-28T20:12:43.193Z,68.26
2022-08-28T20:15:16.357Z,67.85
2022-08-28T20:17:44.009Z,68.13
2022-08-28T20:20:19.198Z,68.26
2022-08-28T20:22:45.993Z,68.18
2022-08-28T20:25:14.810Z,68.02
2022-08-28T20:27:41.818Z,68.05
2022-08-28T20:30:10.471Z,67.88
2022-08-28T20:32:40.153Z,68.24
2022-08-28T20:35:09.853Z,68.23
2022-08-28T20:37:45.375Z,67.90
2022-08-28T20:40:17.486Z,67.97
2022-08-28T20:42:44.843Z,68.19
2022-08-28T20:45:12.851Z,68.27
2022-08-28T20:47:39.418Z,68.38
2022-08-28T20:50:06.834Z,67.98
2022-08-28T20:52:33.612Z,68.03
2022-08-28T20:55:00.153Z,67.85
2022-08-28T20:57:26.754Z,67.83
2022-08-28T20:59:53.338Z,67.79
2022-08-28T21:02:27.037Z,67.47
2022-08-28T21:04:54.747Z,67.74
2022-08-28T21:07:23.775Z,67.94
2022-08-28T21:10:06.804Z,67.60
2022-08-28T21:12:38.426Z,67.49
2022-08-28T21:15:07.653Z,67.68
2022-08-28T21:17:34.433Z,67.48
2022-08-28T21:20:05.299Z,67.38
2022-08-28T21:22:34.569Z,67.36
2022-08-28T21:25:02.928Z,67.65
2022-08-28T21:27:30.378Z,67.69
2022-08-28T21:29:59.308Z,67.53
2022-08-28T21:32:27.190Z,67.79
2022-08-28T21:34:54.290Z,67.71
2022-08-28T21:37:21.103Z,67.62
2022-08-28T21:39:47.713Z,67.48
2022-08-28T21:42:14.247Z,67.65
2022-08-28T21:44:40.884Z,67.83
2022-08-28T21:47:18.584Z,67.86
2022-08-28T21:49:48.332Z,67.82
2022-08-28T21:52:14.984Z,67.69
2022-08-28T21:54:41.529Z,67.86
2022-08-28T21:57:08.183Z,67.76
2022-08-28T21:59:37.793Z,67.92
2022-08-28T22:02:05.287Z,67.83
2022-08-28T22:04:31.995Z,67.97
2022-08-28T22:06:58.945Z,68.00
2022-08-28T22:09:25.631Z,67.92
2022-08-28T22:11:52.466Z,67.92
2022-08-28T22:14:19.149Z,67.96
2022-08-28T22:16:45.746Z,67.93
2022-08-28T22:19:12.328Z,68.12
2022-08-28T22:21:39.002Z,68.02
2022-08-28T22:24:06.120Z,67.94
2022-08-28T22:26:32.913Z,67.85
2022-08-28T22:28:59.496Z,67.64
2022-08-28T22:31:26.404Z,67.89
2022-08-28T22:33:53.657Z,67.71
2022-08-28T22:36:22.013Z,67.76
2022-08-28T22:38:52.990Z,68.09
2022-08-28T22:41:20.222Z,67.98
2022-08-28T22:43:50.744Z,67.79
2022-08-28T22:46:18.923Z,68.02
2022-08-28T22:48:45.600Z,67.88
2022-08-28T22:51:14.573Z,67.83
2022-08-28T22:53:42.905Z,68.02
2022-08-28T22:56:11.023Z,67.92
2022-08-28T22:58:38.082Z,68.04
2022-08-28T23:01:09.258Z,68.09
2022-08-28T23:03:36.390Z,68.11
2022-08-28T23:06:03.317Z,68.03
2022-08-28T23:08:33.871Z,67.78
2022-08-28T23:11:01.183Z,68.03
2022-08-28T23:13:28.582Z,67.85
2022-08-28T23:15:55.339Z,68.16
2022-08-28T23:18:21.871Z,68.19
2022-08-28T23:20:50.634Z,68.20
2022-08-28T23:23:18.944Z,68.04
2022-08-28T23:25:45.487Z,68.34
2022-08-28T23:28:12.447Z,68.14
2022-08-28T23:30:39.749Z,68.37
2022-08-28T23:33:08.391Z,68.24
2022-08-28T23:35:36.543Z,68.06
2022-08-28T23:38:04.130Z,68.53
2022-08-28T23:40:32.645Z,68.45
2022-08-28T23:42:59.549Z,68.22
2022-08-28T23:45:27.339Z,68.25
2022-08-28T23:47:54.770Z,68.01
2022-08-28T23:50:23.736Z,68.23
2022-08-28T23:52:51.686Z,67.91
2022-08-28T23:55:19.667Z,68.04
2022-08-28T23:57:46.718Z,68.07
